Time;durP1;ratioP1;P1;durP2;ratioP2;P2;SDS_P1;SDS_P2;PMS_P1;PMS_P2;Temp;Humidity;BMP_temperature;BMP_pressure;BME280_temperature;BME280_humidity;BME280_pressure;Samples;Min_cycle;Max_cycle;Signal;HPM_P1;HPM_P2
2021/12/26 00:02:47;;;;;;;143.65;45.90;;;;;;;;;;6201560;28;20536;-66
2021/12/26 00:05:48;;;;;;;173.48;51.00;;;;;;;;;;6200267;28;20093;-66
2021/12/26 00:08:49;;;;;;;181.18;55.38;;;;;;;;;;6204257;28;20048;-67
2021/12/26 00:11:51;;;;;;;170.80;55.05;;;;;;;;;;6203258;28;20057;-68
2021/12/26 00:14:52;;;;;;;155.43;50.90;;;;;;;;;;6197089;28;20050;-68
2021/12/26 00:17:53;;;;;;;146.80;48.95;;;;;;;;;;6204155;28;20058;-68
2021/12/26 00:20:53;;;;;;;136.23;46.33;;;;;;;;;;6200530;28;20132;-67
2021/12/26 00:23:57;;;;;;;142.20;47.10;;;;;;;;;;6199566;28;20066;-68
2021/12/26 00:26:57;;;;;;;135.43;43.47;;;;;;;;;;6202999;28;20088;-68
2021/12/26 00:29:58;;;;;;;127.72;45.38;;;;;;;;;;6201683;28;20500;-67
2021/12/26 00:33:00;;;;;;;129.27;45.05;;;;;;;;;;6201568;28;20516;-68
2021/12/26 00:36:01;;;;;;;129.88;45.08;;;;;;;;;;6199824;28;20058;-67
2021/12/26 00:39:03;;;;;;;132.73;44.08;;;;;;;;;;6202922;28;20062;-67
2021/12/26 00:42:04;;;;;;;129.98;43.10;;;;;;;;;;6203702;28;20067;-67
2021/12/26 00:45:06;;;;;;;133.27;44.58;;;;;;;;;;6209137;28;20077;-68
2021/12/26 00:48:07;;;;;;;139.88;45.58;;;;;;;;;;6218574;28;20096;-67
2021/12/26 00:51:08;;;;;;;128.20;44.20;;;;;;;;;;6218653;28;20444;-68
2021/12/26 00:54:08;;;;;;;123.40;42.30;;;;;;;;;;6218540;28;20179;-68
2021/12/26 00:57:09;;;;;;;128.25;41.40;;;;;;;;;;6217829;28;20084;-67
2021/12/26 01:00:18;;;;;;;117.88;39.08;;;;;;;;;;6216057;28;20045;-69
2021/12/26 01:03:20;;;;;;;123.80;40.33;;;;;;;;;;6214546;28;20046;-66
2021/12/26 01:06:21;;;;;;;120.18;39.30;;;;;;;;;;6217447;28;20132;-68
2021/12/26 01:09:26;;;;;;;122.70;40.42;;;;;;;;;;6215754;28;20462;-67
2021/12/26 01:12:29;;;;;;;121.22;40.58;;;;;;;;;;6209634;28;20096;-66
2021/12/26 01:15:29;;;;;;;123.45;43.65;;;;;;;;;;6208692;28;20046;-68
2021/12/26 01:18:34;;;;;;;119.85;41.30;;;;;;;;;;6217811;28;20096;-67
2021/12/26 01:21:35;;;;;;;127.55;43.45;;;;;;;;;;6218120;28;20104;-66
2021/12/26 01:24:36;;;;;;;134.33;44.63;;;;;;;;;;6214544;28;20056;-68
2021/12/26 01:27:36;;;;;;;140.13;44.35;;;;;;;;;;6212686;28;20050;-67
2021/12/26 01:30:38;;;;;;;123.55;42.22;;;;;;;;;;6205529;28;20599;-67
2021/12/26 01:33:39;;;;;;;140.75;43.42;;;;;;;;;;6210901;28;20054;-68
2021/12/26 01:36:40;;;;;;;132.55;43.85;;;;;;;;;;6211806;28;20046;-67
2021/12/26 01:39:41;;;;;;;141.13;42.60;;;;;;;;;;6209465;28;20073;-67
2021/12/26 01:42:43;;;;;;;131.98;43.17;;;;;;;;;;6203722;28;20485;-68
2021/12/26 01:45:45;;;;;;;136.18;43.65;;;;;;;;;;6203227;28;20634;-68
2021/12/26 01:48:46;;;;;;;142.25;45.70;;;;;;;;;;6203177;28;20080;-68
2021/12/26 01:51:48;;;;;;;135.32;46.20;;;;;;;;;;6208003;28;20054;-66
2021/12/26 01:55:00;;;;;;;148.73;47.45;;;;;;;;;;6206309;28;20057;-67
2021/12/26 01:58:01;;;;;;;132.87;43.17;;;;;;;;;;6205410;28;20096;-67
2021/12/26 02:01:06;;;;;;;142.63;45.57;;;;;;;;;;6199570;28;20108;-67
2021/12/26 02:04:08;;;;;;;136.30;44.55;;;;;;;;;;6201548;28;20050;-68
2021/12/26 02:07:11;;;;;;;119.43;39.75;;;;;;;;;;6199606;28;20073;-67
2021/12/26 02:10:11;;;;;;;134.80;40.90;;;;;;;;;;6201796;28;20061;-65
2021/12/26 02:13:13;;;;;;;120.05;41.45;;;;;;;;;;6203829;28;20037;-67
2021/12/26 02:16:14;;;;;;;149.48;46.63;;;;;;;;;;6203038;28;20045;-66
2021/12/26 02:19:15;;;;;;;139.88;47.80;;;;;;;;;;6205948;28;20046;-66
2021/12/26 02:22:22;;;;;;;157.07;47.15;;;;;;;;;;6205833;28;20124;-68
2021/12/26 02:28:28;;;;;;;139.02;45.78;;;;;;;;;;6197358;28;20057;-67
2021/12/26 02:31:29;;;;;;;152.27;46.80;;;;;;;;;;6207038;28;20583;-67
2021/12/26 02:34:29;;;;;;;142.60;45.47;;;;;;;;;;6201519;28;20038;-67
2021/12/26 02:37:30;;;;;;;125.88;40.78;;;;;;;;;;6201970;28;20046;-67
2021/12/26 02:40:30;;;;;;;133.68;42.50;;;;;;;;;;6204717;28;20042;-67
2021/12/26 02:43:32;;;;;;;118.45;42.05;;;;;;;;;;6206697;28;20046;-64
2021/12/26 02:46:33;;;;;;;145.38;42.08;;;;;;;;;;6205514;28;20112;-65
2021/12/26 02:49:34;;;;;;;134.55;44.42;;;;;;;;;;6202440;28;20500;-68
2021/12/26 02:52:34;;;;;;;138.65;44.38;;;;;;;;;;6207566;28;20045;-68
2021/12/26 02:55:35;;;;;;;123.25;39.78;;;;;;;;;;6206150;28;20486;-67
2021/12/26 02:58:36;;;;;;;107.95;36.00;;;;;;;;;;6205612;28;20058;-66
2021/12/26 03:01:37;;;;;;;114.70;35.90;;;;;;;;;;6207176;28;20049;-67
2021/12/26 03:04:37;;;;;;;120.63;37.42;;;;;;;;;;6199409;28;20425;-68
2021/12/26 03:07:38;;;;;;;119.78;37.30;;;;;;;;;;6203985;28;20069;-67
2021/12/26 03:10:39;;;;;;;117.25;37.70;;;;;;;;;;6205782;28;20477;-67
2021/12/26 03:13:42;;;;;;;114.00;36.85;;;;;;;;;;6206861;28;20092;-67
2021/12/26 03:16:47;;;;;;;;;;;;;;;;;;6215190;28;20057;-67
2021/12/26 03:19:48;;;;;;;96.25;31.58;;;;;;;;;;6216402;28;19925;-66
2021/12/26 03:22:49;;;;;;;110.95;34.40;;;;;;;;;;6217331;28;20045;-67
2021/12/26 03:25:54;;;;;;;96.50;32.28;;;;;;;;;;6200137;28;20082;-68
2021/12/26 03:28:55;;;;;;;115.00;34.83;;;;;;;;;;6201572;28;20124;-67
2021/12/26 03:31:55;;;;;;;105.53;36.17;;;;;;;;;;6204893;28;20060;-66
2021/12/26 03:34:56;;;;;;;128.82;39.25;;;;;;;;;;6203716;28;20054;-65
2021/12/26 03:37:58;;;;;;;139.73;39.63;;;;;;;;;;6200344;28;20049;-67
2021/12/26 03:40:59;;;;;;;131.77;38.35;;;;;;;;;;6202971;28;20432;-67
2021/12/26 03:44:00;;;;;;;112.32;35.90;;;;;;;;;;6206706;28;20074;-67
2021/12/26 03:47:00;;;;;;;122.50;37.17;;;;;;;;;;6199288;28;20639;-67
2021/12/26 03:50:03;;;;;;;119.47;35.22;;;;;;;;;;6196104;28;20054;-67
2021/12/26 03:53:03;;;;;;;;;;;;;;;;;;6205207;28;20048;-68
2021/12/26 03:56:04;;;;;;;98.88;30.80;;;;;;;;;;6204472;28;20293;-67
2021/12/26 03:59:05;;;;;;;98.70;31.38;;;;;;;;;;6207262;28;20053;-66
2021/12/26 04:02:07;;;;;;;106.93;32.58;;;;;;;;;;6209867;28;20054;-67
2021/12/26 04:05:08;;;;;;;106.38;32.92;;;;;;;;;;6207257;28;20608;-67
2021/12/26 04:08:09;;;;;;;115.65;34.28;;;;;;;;;;6201649;28;20045;-67
2021/12/26 04:11:09;;;;;;;115.82;33.47;;;;;;;;;;6209792;28;20050;-67
2021/12/26 04:14:14;;;;;;;112.15;30.67;;;;;;;;;;6207307;28;20137;-67
2021/12/26 04:17:15;;;;;;;99.80;30.77;;;;;;;;;;6199002;28;20469;-66
2021/12/26 04:20:16;;;;;;;107.00;30.10;;;;;;;;;;6204930;28;20046;-67
2021/12/26 04:23:18;;;;;;;114.10;31.65;;;;;;;;;;6210221;28;20053;-67
2021/12/26 04:26:19;;;;;;;122.03;32.13;;;;;;;;;;6207698;28;20044;-67
2021/12/26 04:29:19;;;;;;;103.32;31.08;;;;;;;;;;6207980;28;20041;-67
2021/12/26 04:32:20;;;;;;;89.50;28.33;;;;;;;;;;6205557;28;20050;-68
2021/12/26 04:35:21;;;;;;;96.93;30.52;;;;;;;;;;6209598;28;20049;-67
2021/12/26 04:38:21;;;;;;;91.63;28.02;;;;;;;;;;6205567;28;20409;-66
2021/12/26 04:41:22;;;;;;;95.55;27.95;;;;;;;;;;6208982;28;20132;-67
2021/12/26 04:44:25;;;;;;;99.93;27.75;;;;;;;;;;6208215;28;20122;-66
2021/12/26 04:47:26;;;;;;;95.70;25.52;;;;;;;;;;6201749;28;20460;-66
2021/12/26 04:50:28;;;;;;;85.57;26.08;;;;;;;;;;6208419;28;20065;-66
2021/12/26 04:53:28;;;;;;;88.60;25.40;;;;;;;;;;6206103;28;20049;-67
2021/12/26 04:56:29;;;;;;;88.68;27.55;;;;;;;;;;6206213;28;20038;-67
2021/12/26 04:59:29;;;;;;;93.32;25.55;;;;;;;;;;6206838;28;20065;-67
2021/12/26 05:02:32;;;;;;;77.38;25.70;;;;;;;;;;6205887;28;20054;-66
2021/12/26 05:05:33;;;;;;;75.18;24.17;;;;;;;;;;6203037;28;20053;-67
2021/12/26 05:08:34;;;;;;;75.60;25.25;;;;;;;;;;6205866;28;20057;-66
2021/12/26 05:11:37;;;;;;;91.78;26.67;;;;;;;;;;6201846;28;20144;-65
2021/12/26 05:14:37;;;;;;;84.43;24.35;;;;;;;;;;6206602;28;20144;-65
2021/12/26 05:17:40;;;;;;;86.32;25.17;;;;;;;;;;6205208;28;20041;-65
2021/12/26 05:20:41;;;;;;;83.95;24.95;;;;;;;;;;6204172;28;20123;-69
2021/12/26 05:23:41;;;;;;;82.55;25.40;;;;;;;;;;6205513;28;20058;-68
2021/12/26 05:26:42;;;;;;;80.13;25.63;;;;;;;;;;6201849;28;20545;-67
2021/12/26 05:29:43;;;;;;;81.22;24.40;;;;;;;;;;6203336;28;20073;-66
2021/12/26 05:32:44;;;;;;;98.75;24.38;;;;;;;;;;6206673;28;20092;-68
2021/12/26 05:35:44;;;;;;;89.15;23.58;;;;;;;;;;6200075;28;20137;-68
2021/12/26 05:38:45;;;;;;;73.75;23.20;;;;;;;;;;6205576;28;20046;-65
2021/12/26 05:41:46;;;;;;;79.05;24.10;;;;;;;;;;6205705;28;20049;-65
2021/12/26 05:44:48;;;;;;;78.85;22.83;;;;;;;;;;6204354;28;20050;-67
2021/12/26 05:47:48;;;;;;;77.00;23.92;;;;;;;;;;6201114;28;20157;-69
2021/12/26 05:50:50;;;;;;;82.32;25.30;;;;;;;;;;6203211;28;20827;-65
2021/12/26 05:53:50;;;;;;;104.85;25.98;;;;;;;;;;6208975;28;20104;-67
2021/12/26 05:56:51;;;;;;;79.25;23.77;;;;;;;;;;6204918;28;20049;-68
2021/12/26 05:59:52;;;;;;;83.20;25.15;;;;;;;;;;6205813;28;20390;-68
2021/12/26 06:02:54;;;;;;;84.00;22.90;;;;;;;;;;6201393;28;20046;-68
2021/12/26 06:05:55;;;;;;;69.03;20.88;;;;;;;;;;6199462;28;20049;-68
2021/12/26 06:08:55;;;;;;;75.07;23.55;;;;;;;;;;6204088;28;20045;-68
2021/12/26 06:11:56;;;;;;;76.38;19.98;;;;;;;;;;6212889;28;20124;-67
2021/12/26 06:14:56;;;;;;;66.45;19.10;;;;;;;;;;6206808;28;20061;-66
2021/12/26 06:17:57;;;;;;;69.93;19.15;;;;;;;;;;6208161;28;20049;-66
2021/12/26 06:20:58;;;;;;;65.35;20.80;;;;;;;;;;6206462;28;20489;-68
2021/12/26 06:23:58;;;;;;;81.38;21.73;;;;;;;;;;6205879;28;20101;-66
2021/12/26 06:26:59;;;;;;;94.18;24.95;;;;;;;;;;6206023;28;20311;-67
2021/12/26 06:30:00;;;;;;;72.78;22.55;;;;;;;;;;6200780;28;20050;-67
2021/12/26 06:33:00;;;;;;;85.60;24.73;;;;;;;;;;6205597;28;20092;-66
2021/12/26 06:36:01;;;;;;;77.60;21.88;;;;;;;;;;6197477;28;20132;-67
2021/12/26 06:39:03;;;;;;;75.03;22.95;;;;;;;;;;6204830;28;20409;-68
2021/12/26 06:42:04;;;;;;;85.57;24.05;;;;;;;;;;6204292;28;20038;-67
2021/12/26 06:45:05;;;;;;;89.70;22.95;;;;;;;;;;6203926;28;20177;-67
2021/12/26 06:48:06;;;;;;;75.38;22.83;;;;;;;;;;6203206;28;20508;-65
2021/12/26 06:51:08;;;;;;;86.83;23.93;;;;;;;;;;6199898;28;20471;-66
2021/12/26 06:54:08;;;;;;;83.13;26.05;;;;;;;;;;6200227;28;20052;-65
2021/12/26 06:57:09;;;;;;;95.03;26.58;;;;;;;;;;6202938;28;20109;-67
2021/12/26 07:00:12;;;;;;;227.55;53.28;;;;;;;;;;6205093;28;20421;-66
2021/12/26 07:03:13;;;;;;;161.88;39.63;;;;;;;;;;6204164;28;20616;-68
2021/12/26 07:06:14;;;;;;;140.70;36.90;;;;;;;;;;6207933;28;20049;-67
2021/12/26 07:09:14;;;;;;;132.70;36.22;;;;;;;;;;6206775;28;20072;-66
2021/12/26 07:12:15;;;;;;;129.07;33.83;;;;;;;;;;6203066;28;20054;-67
2021/12/26 07:15:16;;;;;;;199.35;46.67;;;;;;;;;;6212573;28;20061;-67
2021/12/26 07:18:16;;;;;;;173.45;42.10;;;;;;;;;;6216698;28;20564;-67
2021/12/26 07:21:17;;;;;;;169.52;41.63;;;;;;;;;;6215013;28;20116;-67
2021/12/26 07:24:18;;;;;;;169.63;45.20;;;;;;;;;;6202704;28;20129;-69
2021/12/26 07:27:19;;;;;;;184.82;43.63;;;;;;;;;;6200629;28;20097;-65
2021/12/26 07:30:19;;;;;;;148.88;37.97;;;;;;;;;;6211872;28;20045;-67
2021/12/26 07:33:20;;;;;;;188.20;42.53;;;;;;;;;;6211353;28;20139;-63
2021/12/26 07:36:21;;;;;;;233.10;50.00;;;;;;;;;;6210031;28;20045;-67
2021/12/26 07:39:21;;;;;;;189.35;52.25;;;;;;;;;;6205802;28;20054;-63
2021/12/26 07:42:22;;;;;;;191.20;50.30;;;;;;;;;;6221917;28;20038;-63
2021/12/26 07:45:23;;;;;;;147.18;40.97;;;;;;;;;;6219334;28;20037;-67
2021/12/26 07:48:23;;;;;;;194.77;48.20;;;;;;;;;;6221453;28;20057;-63
2021/12/26 07:51:24;;;;;;;173.88;43.88;;;;;;;;;;6220762;28;20106;-62
2021/12/26 07:54:25;;;;;;;126.20;36.40;;;;;;;;;;6221830;28;20050;-63
2021/12/26 07:57:26;;;;;;;111.72;34.88;;;;;;;;;;6217525;28;20141;-63
2021/12/26 08:00:26;;;;;;;134.05;37.58;;;;;;;;;;6218298;28;20038;-62
2021/12/26 08:03:27;;;;;;;111.47;34.40;;;;;;;;;;6220836;28;20046;-61
2021/12/26 08:06:31;;;;;;;118.28;35.35;;;;;;;;;;6211046;28;20140;-62
2021/12/26 08:09:31;;;;;;;130.00;34.75;;;;;;;;;;6210925;28;20046;-65
2021/12/26 08:12:32;;;;;;;121.85;34.03;;;;;;;;;;6211341;28;20466;-62
2021/12/26 08:15:33;;;;;;;130.07;36.08;;;;;;;;;;6219625;28;20057;-64
2021/12/26 08:18:34;;;;;;;134.27;39.05;;;;;;;;;;6197366;28;20458;-62
2021/12/26 08:21:35;;;;;;;126.50;34.55;;;;;;;;;;6211882;28;20420;-62
2021/12/26 08:24:35;;;;;;;135.05;39.28;;;;;;;;;;6213843;28;20072;-65
2021/12/26 08:27:36;;;;;;;148.45;40.10;;;;;;;;;;6219118;28;20042;-64
2021/12/26 08:30:37;;;;;;;172.00;44.00;;;;;;;;;;6219685;28;20056;-63
2021/12/26 08:33:38;;;;;;;158.68;44.10;;;;;;;;;;6201519;28;20050;-62
2021/12/26 08:36:38;;;;;;;205.90;51.78;;;;;;;;;;6205511;28;20049;-64
2021/12/26 08:39:42;;;;;;;207.98;52.30;;;;;;;;;;6209943;28;20070;-61
2021/12/26 08:42:43;;;;;;;171.02;46.85;;;;;;;;;;6199998;28;20043;-63
2021/12/26 08:45:44;;;;;;;156.77;45.42;;;;;;;;;;6198461;28;20580;-64
2021/12/26 08:48:44;;;;;;;174.00;48.63;;;;;;;;;;6199509;28;20050;-62
2021/12/26 08:51:46;;;;;;;198.52;56.78;;;;;;;;;;6200840;28;20527;-62
2021/12/26 08:54:47;;;;;;;171.23;50.45;;;;;;;;;;6199148;28;20046;-64
2021/12/26 08:57:48;;;;;;;171.45;47.85;;;;;;;;;;6202790;28;20144;-62
2021/12/26 09:00:49;;;;;;;136.55;39.35;;;;;;;;;;6215557;28;20041;-62
2021/12/26 09:03:50;;;;;;;109.43;34.50;;;;;;;;;;6206655;28;20045;-68
2021/12/26 09:06:50;;;;;;;95.63;33.08;;;;;;;;;;6209631;28;20141;-63
2021/12/26 09:09:51;;;;;;;94.25;28.50;;;;;;;;;;6202491;28;20468;-61
2021/12/26 09:12:52;;;;;;;74.53;24.35;;;;;;;;;;6197514;28;20133;-63
2021/12/26 09:15:52;;;;;;;78.75;24.17;;;;;;;;;;6213603;28;20103;-61
2021/12/26 09:18:53;;;;;;;90.53;29.08;;;;;;;;;;6206060;28;20062;-62
2021/12/26 09:21:59;;;;;;;95.93;29.80;;;;;;;;;;6211129;28;20062;-64
2021/12/26 09:25:03;;;;;;;106.20;30.40;;;;;;;;;;6201387;28;20141;-63
2021/12/26 09:28:04;;;;;;;135.45;36.85;;;;;;;;;;6195323;28;20918;-63
2021/12/26 09:31:04;;;;;;;140.68;37.40;;;;;;;;;;6201551;28;20085;-64
2021/12/26 09:34:05;;;;;;;115.22;33.90;;;;;;;;;;6218476;28;20068;-62
2021/12/26 09:37:09;;;;;;;99.30;29.67;;;;;;;;;;6201603;28;20050;-62
2021/12/26 09:40:12;;;;;;;104.45;29.63;;;;;;;;;;6195851;28;20050;-66
2021/12/26 09:43:13;;;;;;;86.07;26.40;;;;;;;;;;6199200;28;20591;-64
2021/12/26 09:46:13;;;;;;;97.05;28.23;;;;;;;;;;6195493;28;20230;-64
2021/12/26 09:49:14;;;;;;;97.70;29.75;;;;;;;;;;6205651;28;20045;-63
2021/12/26 09:52:15;;;;;;;98.47;31.02;;;;;;;;;;6211572;28;20050;-62
2021/12/26 09:55:16;;;;;;;101.75;31.60;;;;;;;;;;6199320;28;20045;-61
2021/12/26 09:58:19;;;;;;;99.72;30.08;;;;;;;;;;6194181;28;20054;-59
2021/12/26 10:01:28;;;;;;;106.35;31.95;;;;;;;;;;6199420;28;20150;-60
2021/12/26 10:04:34;;;;;;;105.47;32.58;;;;;;;;;;6202030;28;20096;-61
2021/12/26 10:07:35;;;;;;;116.22;34.38;;;;;;;;;;6217207;28;20420;-62
2021/12/26 10:10:39;;;;;;;119.72;34.97;;;;;;;;;;6217037;28;20050;-61
2021/12/26 10:13:44;;;;;;;114.53;35.03;;;;;;;;;;6217666;28;20053;-63
2021/12/26 10:16:57;;;;;;;103.03;32.45;;;;;;;;;;6209120;28;20689;-61
2021/12/26 10:20:03;;;;;;;;;;;;;;;;;;6210169;28;20347;-61
2021/12/26 10:23:23;;;;;;;96.13;27.75;;;;;;;;;;6211487;28;19964;-61
2021/12/26 10:26:26;;;;;;;96.25;29.67;;;;;;;;;;6217913;28;20058;-62
2021/12/26 10:29:38;;;;;;;107.95;33.22;;;;;;;;;;6215694;28;20144;-63
2021/12/26 10:32:40;;;;;;;113.43;32.90;;;;;;;;;;6205534;28;20361;-63
2021/12/26 10:35:41;;;;;;;112.50;37.00;;;;;;;;;;6200533;28;20512;-63
2021/12/26 10:38:41;;;;;;;122.70;36.72;;;;;;;;;;6201591;28;20057;-63
2021/12/26 10:41:44;;;;;;;131.20;36.55;;;;;;;;;;6202959;28;20141;-63
2021/12/26 10:44:48;;;;;;;106.00;33.47;;;;;;;;;;6195369;28;20399;-63
2021/12/26 10:47:56;;;;;;;109.82;34.83;;;;;;;;;;6193304;28;20049;-62
2021/12/26 10:50:56;;;;;;;127.95;39.25;;;;;;;;;;6199283;28;20061;-61
2021/12/26 10:54:15;;;;;;;128.05;41.58;;;;;;;;;;6196026;28;20121;-61
2021/12/26 10:57:25;;;;;;;99.50;33.42;;;;;;;;;;6212175;28;20196;-62
2021/12/26 11:00:54;;;;;;;100.57;32.85;;;;;;;;;;6215415;28;20140;-62
2021/12/26 11:04:05;;;;;;;94.90;31.70;;;;;;;;;;6206402;28;20417;-62
2021/12/26 11:07:08;;;;;;;104.10;32.50;;;;;;;;;;6209039;28;20081;-62
2021/12/26 11:10:14;;;;;;;97.88;30.80;;;;;;;;;;6200205;28;20494;-62
2021/12/26 11:13:20;;;;;;;76.60;25.45;;;;;;;;;;6203306;28;20107;-63
2021/12/26 11:16:21;;;;;;;79.38;24.35;;;;;;;;;;6208270;28;20045;-62
2021/12/26 11:19:44;;;;;;;82.13;29.05;;;;;;;;;;6201712;28;20127;-62
2021/12/26 11:22:45;;;;;;;95.60;30.67;;;;;;;;;;6201606;28;20050;-62
2021/12/26 11:25:58;;;;;;;101.30;32.88;;;;;;;;;;6202323;28;20105;-62
2021/12/26 11:28:58;;;;;;;99.80;30.45;;;;;;;;;;6200445;28;20049;-63
2021/12/26 11:31:59;;;;;;;79.45;26.73;;;;;;;;;;6198711;28;20041;-62
2021/12/26 11:35:01;;;;;;;54.80;20.73;;;;;;;;;;6199386;28;20042;-63
2021/12/26 11:38:03;;;;;;;63.35;20.13;;;;;;;;;;6201047;28;20049;-62
2021/12/26 11:41:26;;;;;;;69.25;21.00;;;;;;;;;;6204284;28;20046;-62
2021/12/26 11:45:05;;;;;;;59.75;19.17;;;;;;;;;;6198205;28;20046;-62
2021/12/26 11:48:44;;;;;;;117.63;53.60;;;;;;;;;;6195489;28;20061;-62
2021/12/26 11:52:04;;;;;;;68.93;28.05;;;;;;;;;;6200117;28;20050;-63
2021/12/26 11:55:44;;;;;;;57.80;20.48;;;;;;;;;;6199387;28;20488;-62
2021/12/26 11:58:45;;;;;;;49.60;19.20;;;;;;;;;;6207425;28;20085;-63
2021/12/26 12:01:48;;;;;;;38.45;14.95;;;;;;;;;;6203751;28;20056;-62
2021/12/26 12:05:07;;;;;;;36.65;12.60;;;;;;;;;;6200266;28;20042;-63
2021/12/26 12:08:10;;;;;;;25.85;8.77;;;;;;;;;;6197864;28;20050;-62
2021/12/26 12:11:12;;;;;;;37.80;9.85;;;;;;;;;;6200160;28;20072;-63
2021/12/26 12:14:12;;;;;;;35.72;10.07;;;;;;;;;;6197050;28;20058;-63
2021/12/26 12:17:31;;;;;;;25.13;8.95;;;;;;;;;;6204856;28;20053;-63
2021/12/26 12:20:31;;;;;;;28.73;8.23;;;;;;;;;;6205150;28;20087;-62
2021/12/26 12:23:32;;;;;;;22.60;7.22;;;;;;;;;;6208098;28;20046;-62
2021/12/26 12:26:37;;;;;;;22.80;7.88;;;;;;;;;;6202862;28;20053;-62
2021/12/26 12:29:49;;;;;;;29.67;9.23;;;;;;;;;;6202246;28;20042;-63
2021/12/26 12:33:13;;;;;;;33.13;12.75;;;;;;;;;;6208313;28;20042;-62
2021/12/26 12:36:26;;;;;;;30.85;10.00;;;;;;;;;;6206341;28;20049;-62
2021/12/26 12:39:30;;;;;;;;;;;;;;;;;;6203728;28;20042;-62
2021/12/26 12:42:31;;;;;;;20.50;8.05;;;;;;;;;;6207994;28;20400;-62
2021/12/26 12:45:54;;;;;;;27.83;7.93;;;;;;;;;;6205734;28;20093;-63
2021/12/26 12:49:07;;;;;;;28.02;9.10;;;;;;;;;;6202664;28;20231;-63
2021/12/26 12:52:08;;;;;;;25.95;9.75;;;;;;;;;;6205133;28;20124;-62
2021/12/26 12:55:17;;;;;;;23.17;7.97;;;;;;;;;;6207796;28;20485;-62
2021/12/26 12:58:23;;;;;;;32.50;10.60;;;;;;;;;;6204692;28;20061;-61
2021/12/26 13:01:39;;;;;;;33.67;9.93;;;;;;;;;;6194921;28;20057;-62
2021/12/26 13:04:42;;;;;;;28.13;8.88;;;;;;;;;;6202819;28;20057;-61
2021/12/26 13:07:42;;;;;;;31.02;12.00;;;;;;;;;;6204124;28;20896;-61
2021/12/26 13:10:49;;;;;;;32.28;11.40;;;;;;;;;;6198814;28;20073;-61
2021/12/26 13:13:53;;;;;;;30.15;10.52;;;;;;;;;;6199151;28;20057;-62
2021/12/26 13:16:53;;;;;;;41.03;12.20;;;;;;;;;;6197515;28;20053;-61
2021/12/26 13:19:57;;;;;;;40.83;13.52;;;;;;;;;;6196217;28;20057;-62
2021/12/26 13:23:04;;;;;;;39.67;13.73;;;;;;;;;;6198817;28;20812;-61
2021/12/26 13:26:07;;;;;;;30.52;11.20;;;;;;;;;;6198717;28;20156;-63
2021/12/26 13:29:08;;;;;;;30.90;10.57;;;;;;;;;;6198779;28;20441;-62
2021/12/26 13:32:08;;;;;;;42.55;12.38;;;;;;;;;;6197079;28;20081;-61
2021/12/26 13:35:09;;;;;;;34.17;11.18;;;;;;;;;;6196696;28;20046;-63
2021/12/26 13:38:10;;;;;;;34.92;12.00;;;;;;;;;;6204708;28;20161;-61
2021/12/26 13:41:15;;;;;;;41.95;13.02;;;;;;;;;;6201565;28;20054;-61
2021/12/26 13:44:18;;;;;;;36.83;11.32;;;;;;;;;;6198872;28;20046;-61
2021/12/26 13:47:19;;;;;;;39.13;12.05;;;;;;;;;;6199454;28;20053;-61
2021/12/26 13:50:20;;;;;;;36.07;11.63;;;;;;;;;;6197366;28;20096;-63
2021/12/26 13:53:22;;;;;;;33.60;12.95;;;;;;;;;;6195753;28;20485;-62
2021/12/26 13:56:22;;;;;;;32.88;12.95;;;;;;;;;;6198021;28;20102;-62
2021/12/26 13:59:36;;;;;;;35.63;11.60;;;;;;;;;;6201025;28;20552;-61
2021/12/26 14:02:36;;;;;;;28.83;9.98;;;;;;;;;;6197655;28;20488;-61
2021/12/26 14:05:37;;;;;;;21.45;8.85;;;;;;;;;;6197479;28;20058;-62
2021/12/26 14:08:38;;;;;;;26.88;10.18;;;;;;;;;;6199204;28;20162;-61
2021/12/26 14:11:39;;;;;;;22.23;9.30;;;;;;;;;;6202059;28;20049;-62
2021/12/26 14:14:39;;;;;;;26.90;11.15;;;;;;;;;;6196952;28;20061;-62
2021/12/26 14:17:56;;;;;;;43.50;13.27;;;;;;;;;;6196862;28;20060;-62
2021/12/26 14:21:06;;;;;;;47.65;14.40;;;;;;;;;;6199841;28;20045;-62
2021/12/26 14:24:07;;;;;;;51.50;18.17;;;;;;;;;;6200807;28;20060;-62
2021/12/26 14:27:07;;;;;;;62.70;20.75;;;;;;;;;;6195723;28;20050;-62
2021/12/26 14:30:08;;;;;;;66.57;21.38;;;;;;;;;;6195947;28;20057;-62
2021/12/26 14:33:09;;;;;;;70.50;24.63;;;;;;;;;;6199023;28;20076;-61
2021/12/26 14:36:10;;;;;;;77.40;27.15;;;;;;;;;;6198440;28;20057;-63
2021/12/26 14:39:12;;;;;;;71.35;27.60;;;;;;;;;;6202400;28;20060;-62
2021/12/26 14:42:19;;;;;;;68.35;27.30;;;;;;;;;;6203418;28;20041;-61
2021/12/26 14:45:20;;;;;;;88.93;26.88;;;;;;;;;;6203132;28;20084;-61
2021/12/26 14:48:28;;;;;;;119.13;32.55;;;;;;;;;;6202519;28;20137;-62
2021/12/26 14:51:29;;;;;;;106.68;32.22;;;;;;;;;;6202775;28;20053;-62
2021/12/26 14:54:42;;;;;;;88.68;28.27;;;;;;;;;;6203806;28;20080;-60
2021/12/26 14:57:43;;;;;;;105.40;31.27;;;;;;;;;;6202132;28;20061;-61
2021/12/26 15:00:46;;;;;;;100.20;31.60;;;;;;;;;;6203001;28;20054;-61
2021/12/26 15:03:46;;;;;;;;;;;;;;;;;;6197614;28;20052;-61
2021/12/26 15:06:51;;;;;;;114.43;35.38;;;;;;;;;;6194675;28;19926;-61
2021/12/26 15:09:55;;;;;;;117.22;36.40;;;;;;;;;;6194863;28;20054;-61
2021/12/26 15:12:56;;;;;;;87.65;31.45;;;;;;;;;;6197838;28;20181;-60
2021/12/26 15:15:57;;;;;;;97.20;29.73;;;;;;;;;;6202717;28;20081;-60
2021/12/26 15:18:58;;;;;;;102.28;30.92;;;;;;;;;;6203637;28;20436;-60
2021/12/26 15:22:03;;;;;;;97.20;31.48;;;;;;;;;;6202807;28;20054;-60
2021/12/26 15:25:04;;;;;;;95.97;29.80;;;;;;;;;;6199095;28;20143;-60
2021/12/26 15:28:14;;;;;;;90.85;30.70;;;;;;;;;;6202180;28;20058;-60
2021/12/26 15:31:21;;;;;;;91.43;29.65;;;;;;;;;;6203935;28;20133;-60
2021/12/26 15:34:22;;;;;;;98.18;31.88;;;;;;;;;;6205953;28;20050;-60
2021/12/26 15:37:23;;;;;;;117.72;38.60;;;;;;;;;;6205864;28;21199;-60
2021/12/26 15:40:24;;;;;;;82.65;31.13;;;;;;;;;;6201807;28;20050;-60
2021/12/26 15:43:25;;;;;;;88.05;28.83;;;;;;;;;;6205455;28;20050;-63
2021/12/26 15:46:28;;;;;;;105.32;31.67;;;;;;;;;;6206464;28;20119;-60
2021/12/26 15:49:29;;;;;;;98.60;28.58;;;;;;;;;;6204165;28;20200;-62
2021/12/26 15:52:30;;;;;;;105.82;29.48;;;;;;;;;;6209337;28;20657;-63
2021/12/26 15:55:31;;;;;;;105.10;28.80;;;;;;;;;;6210138;28;20050;-62
2021/12/26 15:58:32;;;;;;;113.32;29.42;;;;;;;;;;6209722;28;20057;-61
2021/12/26 16:01:33;;;;;;;105.10;30.20;;;;;;;;;;6208023;28;20468;-60
2021/12/26 16:04:33;;;;;;;106.60;29.25;;;;;;;;;;6209053;28;20096;-61
2021/12/26 16:07:34;;;;;;;107.72;30.58;;;;;;;;;;6202339;28;20054;-60
2021/12/26 16:10:35;;;;;;;104.68;30.88;;;;;;;;;;6202772;28;20938;-62
2021/12/26 16:13:36;;;;;;;89.60;28.20;;;;;;;;;;6204556;28;20057;-60
2021/12/26 16:16:39;;;;;;;92.03;30.23;;;;;;;;;;6205309;28;20061;-60
2021/12/26 16:19:40;;;;;;;90.18;27.20;;;;;;;;;;6206482;28;20061;-60
2021/12/26 16:22:42;;;;;;;95.82;31.27;;;;;;;;;;6204702;28;20093;-61
2021/12/26 16:25:43;;;;;;;96.83;29.53;;;;;;;;;;6205990;28;20516;-61
2021/12/26 16:28:44;;;;;;;96.83;29.67;;;;;;;;;;6205586;28;20323;-60
2021/12/26 16:31:45;;;;;;;92.80;30.35;;;;;;;;;;6203182;28;20053;-60
2021/12/26 16:34:46;;;;;;;127.00;34.67;;;;;;;;;;6205309;28;20053;-59
2021/12/26 16:37:51;;;;;;;159.18;40.38;;;;;;;;;;6209616;28;20405;-59
2021/12/26 16:40:52;;;;;;;133.48;37.33;;;;;;;;;;6207022;28;20429;-59
2021/12/26 16:43:53;;;;;;;95.72;30.40;;;;;;;;;;6209843;28;20085;-60
2021/12/26 16:46:54;;;;;;;87.15;27.48;;;;;;;;;;6208262;28;20416;-60
2021/12/26 16:49:55;;;;;;;87.50;28.48;;;;;;;;;;6201729;28;20041;-60
2021/12/26 16:52:56;;;;;;;109.32;32.28;;;;;;;;;;6207196;28;20056;-60
2021/12/26 16:55:57;;;;;;;121.05;37.42;;;;;;;;;;6209007;28;20078;-60
2021/12/26 16:58:58;;;;;;;139.90;39.45;;;;;;;;;;6207006;28;20077;-60
2021/12/26 17:02:01;;;;;;;135.25;36.60;;;;;;;;;;6200608;28;20042;-60
2021/12/26 17:05:04;;;;;;;151.88;38.08;;;;;;;;;;6205732;28;20169;-59
2021/12/26 17:08:09;;;;;;;117.10;35.10;;;;;;;;;;6204414;28;20057;-60
2021/12/26 17:11:11;;;;;;;123.85;38.63;;;;;;;;;;6201052;28;20825;-60
2021/12/26 17:14:13;;;;;;;140.40;39.83;;;;;;;;;;6206752;28;20062;-60
2021/12/26 17:17:14;;;;;;;143.60;39.65;;;;;;;;;;6208661;28;20045;-60
2021/12/26 17:20:15;;;;;;;144.82;39.20;;;;;;;;;;6205914;28;20065;-60
2021/12/26 17:23:16;;;;;;;146.88;40.17;;;;;;;;;;6205444;28;20825;-61
2021/12/26 17:26:17;;;;;;;126.68;38.47;;;;;;;;;;6208099;28;20500;-60
2021/12/26 17:29:18;;;;;;;118.93;39.60;;;;;;;;;;6207348;28;20447;-63
2021/12/26 17:32:20;;;;;;;131.05;39.10;;;;;;;;;;6204915;28;20085;-60
2021/12/26 17:35:22;;;;;;;135.98;39.75;;;;;;;;;;6207937;28;20050;-59
2021/12/26 17:38:24;;;;;;;115.40;37.03;;;;;;;;;;6204477;28;20073;-60
2021/12/26 17:41:25;;;;;;;123.93;38.70;;;;;;;;;;6202979;28;20093;-61
2021/12/26 17:44:25;;;;;;;114.07;36.38;;;;;;;;;;6204918;28;20085;-61